Flight Track Log - Related Links

Times and Time Zones

All times are in EDT time to prevent confusion due to time zone crossing. See the SWA419 flight status page for this flight to view local times or setup timezone preferences in your user account.

Time Position Orientation Groundspeed Altitude Reporting Facility
EDT Latitude Longitude Course Direction KTS MPH feet Rate Location/Type
Sun 02:17:02 PM 39.1667 -76.7167 288° West 169 194 1,500  Level Potomac TRACON
Sun 02:18:02 PM 39.1833 -76.7833 288° West 225 259 3,500 2,727 Climbing Potomac TRACON
Sun 02:19:03 PM 39.2000 -76.8833 282° West 263 303 7,000 3,521 Climbing Potomac TRACON
Sun 02:20:03 PM 39.2167 -76.9833 282° West 275 316 10,600 2,876 Climbing Potomac TRACON
Sun 02:21:04 PM 39.2167 -77.1000 270° West 338 389 12,800 2,777 Climbing Potomac TRACON
Sun 02:22:04 PM 39.1667 -77.1833 232° Southwest 359 413 16,200 2,981 Climbing Potomac TRACON
Sun 02:23:41 PM 39.0372 -77.2725 208° Southwest 352 405 20,600 2,599 Climbing Washington Center
Sun 02:24:41 PM 38.9736 -77.3511 224° Southwest 367 422 23,000 1,200 Climbing Washington Center
Sun 02:25:41 PM 38.9569 -77.4817 261° West 336 387 23,000 50 Level Washington Center
Sun 02:26:41 PM 38.9378 -77.6278 260° West 366 421 23,100 1,250 Climbing Washington Center
Sun 02:27:41 PM 38.9189 -77.7633 260° West 387 445 25,500 1,950 Climbing Washington Center
Sun 02:28:41 PM 38.8997 -77.8989 260° West 392 451 27,000 1,600 Climbing Washington Center
Sun 02:29:41 PM 38.8803 -78.0369 260° West 392 451 28,700 2,150 Climbing Washington Center
Sun 02:30:41 PM 38.8586 -78.1722 258° West 392 451 31,300 2,350 Climbing Washington Center
Sun 02:31:41 PM 38.8517 -78.3053 266° West 387 445 33,400 1,650 Climbing Washington Center
Sun 02:32:41 PM 38.8483 -78.4383 268° West 382 440 34,600 1,100 Climbing Washington Center
Sun 02:33:41 PM 38.8286 -78.5708 259° West 382 440 35,600 1,300 Climbing Washington Center
Sun 02:34:41 PM 38.8128 -78.7033 261° West 387 445 37,200 1,200 Climbing Washington Center
Sun 02:35:41 PM 38.7947 -78.8306 260° West 381 438 38,000 400 Climbing Washington Center
Sun 02:36:41 PM 38.7764 -78.9656 260° West 381 438 38,000  Level Washington Center
Sun 02:37:41 PM 38.7603 -79.0953 261° West 381 438 38,000  Level Washington Center
Sun 02:38:41 PM 38.7397 -79.2275 259° West 381 438 38,000  Level Washington Center
Sun 02:39:41 PM 38.7256 -79.3464 261° West 381 438 38,000  Level Washington Center
Sun 02:40:41 PM 38.7067 -79.4786 260° West 381 438 38,000  Level Washington Center
Sun 02:41:41 PM 38.6858 -79.6106 259° West 381 438 38,000  Level Washington Center
Sun 02:42:41 PM 38.6661 -79.7556 260° West 381 438 38,000  Level Washington Center
Sun 02:45:11 PM 38.6172 -80.0575 258° West 368 423 38,000  Level Indianapolis Center
Sun 02:46:13 PM 38.5978 -80.1992 260° West 365 420 38,000  Level Indianapolis Center
Sun 02:47:15 PM 38.5781 -80.3244 259° West 369 425 38,000  Level Indianapolis Center
Sun 02:48:17 PM 38.5553 -80.4692 259° West 372 428 38,000  Level Indianapolis Center
Sun 02:49:19 PM 38.5367 -80.6008 260° West 376 433 38,000  Level Indianapolis Center
Sun 02:50:21 PM 38.5158 -80.7319 259° West 376 433 38,000  Level Indianapolis Center
Sun 02:51:23 PM 38.4944 -80.8642 258° West 380 437 38,000  Level Indianapolis Center
Sun 02:52:25 PM 38.4792 -80.9703 260° West 380 437 38,000  Level Indianapolis Center
Sun 02:53:28 PM 38.4525 -81.1319 258° West 386 444 38,000  Level Indianapolis Center
Sun 02:54:30 PM 38.4314 -81.2661 259° West 384 442 38,000  Level Indianapolis Center
Sun 02:55:32 PM 38.4100 -81.4022 259° West 387 445 38,000  Level Indianapolis Center
Sun 02:56:34 PM 38.3836 -81.5656 258° West 387 445 38,000  Level Indianapolis Center
Sun 02:57:36 PM 38.3622 -81.6992 259° West 383 441 38,000  Level Indianapolis Center
Sun 02:58:38 PM 38.3342 -81.8306 255° West 383 441 38,000  Level Indianapolis Center
Sun 02:59:40 PM 38.2978 -81.9569 250° West 380 437 38,000  Level Indianapolis Center
Sun 03:00:42 PM 38.2619 -82.0844 250° West 381 438 38,000  Level Indianapolis Center
Sun 03:01:44 PM 38.2264 -82.2117 250° West 381 438 38,000  Level Indianapolis Center
Sun 03:02:46 PM 38.1903 -82.3386 250° West 382 440 38,000  Level Indianapolis Center
Sun 03:03:48 PM 38.1531 -82.4661 250° West 383 441 38,000  Level Indianapolis Center
Sun 03:04:50 PM 38.1094 -82.6206 250° West 384 442 38,000  Level Indianapolis Center
Sun 03:05:52 PM 38.0722 -82.7481 250° West 386 444 38,000  Level Indianapolis Center
Sun 03:06:54 PM 38.0344 -82.8753 249° West 386 444 38,000  Level Indianapolis Center
Sun 03:07:56 PM 37.9942 -83.0014 248° West 389 448 38,000  Level Indianapolis Center
Sun 03:08:58 PM 37.9469 -83.1228 244° Southwest 386 444 38,000  Level Indianapolis Center
Sun 03:10:00 PM 37.8922 -83.2661 244° Southwest 387 445 38,000  Level Indianapolis Center
Sun 03:11:02 PM 37.8458 -83.3867 244° Southwest 383 441 38,000  Level Indianapolis Center
Sun 03:12:04 PM 37.7983 -83.5081 244° Southwest 386 444 38,000  Level Indianapolis Center
Sun 03:13:06 PM 37.7517 -83.6289 244° Southwest 384 442 38,000  Level Indianapolis Center
Sun 03:14:08 PM 37.7044 -83.7517 244° Southwest 387 445 38,000  Level Indianapolis Center
Sun 03:15:10 PM 37.6486 -83.8936 244° Southwest 389 448 38,000  Level Indianapolis Center
Sun 03:16:12 PM 37.5997 -84.0150 243° Southwest 389 448 38,000  Level Indianapolis Center
Sun 03:17:14 PM 37.5514 -84.1378 244° Southwest 392 451 38,000  Level Indianapolis Center
Sun 03:18:16 PM 37.5039 -84.2600 244° Southwest 389 448 38,000  Level Indianapolis Center
Sun 03:19:18 PM 37.4544 -84.3828 243° Southwest 393 452 38,000  Level Indianapolis Center
Sun 03:20:20 PM 37.3981 -84.5236 243° Southwest 388 447 38,000  Level Indianapolis Center
Sun 03:21:22 PM 37.3486 -84.6458 243° Southwest 392 451 38,000  Level Indianapolis Center
Sun 03:22:25 PM 37.3000 -84.7681 243° Southwest 390 449 38,000  Level Indianapolis Center
Sun 03:23:27 PM 37.2500 -84.8894 243° Southwest 390 449 38,000  Level Indianapolis Center
Sun 03:24:29 PM 37.2017 -85.0111 244° Southwest 389 448 38,000  Level Indianapolis Center
Sun 03:25:31 PM 37.1419 -85.1533 242° Southwest 393 452 38,000  Level Indianapolis Center
Sun 03:26:33 PM 37.0928 -85.2758 243° Southwest 394 453 38,000  Level Indianapolis Center
Sun 03:27:35 PM 37.0422 -85.3975 243° Southwest 394 453 38,000  Level Indianapolis Center
Sun 03:28:37 PM 36.9883 -85.5303 243° Southwest 397 457 38,000  Level Indianapolis Center
Sun 03:29:39 PM 36.9369 -85.6536 242° Southwest 398 458 38,000  Level Indianapolis Center
Sun 03:29:58 PM 36.9192 -85.6964 243° Southwest 401 461 38,000  Level Memphis Center
Sun 03:30:58 PM 36.8675 -85.8189 242° Southwest 396 456 38,000  Level Memphis Center
Sun 03:31:58 PM 36.8178 -85.9433 244° Southwest 401 461 38,000  Level Memphis Center
Sun 03:32:58 PM 36.7658 -86.0628 242° Southwest 403 464 38,000  Level Memphis Center
Sun 03:33:58 PM 36.7197 -86.1739 243° Southwest 403 464 38,000  Level Memphis Center
Sun 03:34:58 PM 36.6694 -86.2931 242° Southwest 396 456 38,000  Level Memphis Center
Sun 03:35:58 PM 36.6172 -86.4172 242° Southwest 396 456 38,000  Level Memphis Center
Sun 03:36:58 PM 36.5647 -86.5386 242° Southwest 401 461 38,000  Level Memphis Center
Sun 03:37:58 PM 36.5122 -86.6622 242° Southwest 401 461 38,000 400 Level Memphis Center
Sun 03:38:58 PM 36.4553 -86.7836 240° Southwest 401 461 38,800 850 Climbing Memphis Center
Sun 03:39:58 PM 36.3875 -86.8950 233° Southwest 414 476 39,700 600 Climbing Memphis Center
Sun 03:40:58 PM 36.3217 -87.0033 233° Southwest 414 476 40,000 150 Climbing Memphis Center
Sun 03:41:58 PM 36.2561 -87.1217 236° Southwest 422 486 40,000  Level Memphis Center
Sun 03:42:58 PM 36.1858 -87.2350 232° Southwest 412 474 40,000  Level Memphis Center
Sun 03:43:58 PM 36.1178 -87.3456 233° Southwest 412 474 40,000  Level Memphis Center
Sun 03:44:58 PM 36.0497 -87.4586 233° Southwest 417 480 40,000  Level Memphis Center
Sun 03:45:58 PM 35.9833 -87.5711 234° Southwest 417 480 40,000  Level Memphis Center
Sun 03:46:58 PM 35.9150 -87.6836 233° Southwest 417 480 40,000  Level Memphis Center
Sun 03:47:58 PM 35.8464 -87.7961 233° Southwest 417 480 40,000  Level Memphis Center
Sun 03:48:58 PM 35.7717 -87.9161 233° Southwest 417 480 40,000  Level Memphis Center
Sun 03:49:58 PM 35.7028 -88.0256 232° Southwest 417 480 40,000  Level Memphis Center
Sun 03:50:58 PM 35.6361 -88.1372 234° Southwest 417 480 40,000  Level Memphis Center
Sun 03:51:58 PM 35.5753 -88.2283 231° Southwest 406 467 40,000  Level Memphis Center
Sun 03:52:58 PM 35.5039 -88.3397 232° Southwest 406 467 40,000  Level Memphis Center
Sun 03:53:58 PM 35.4350 -88.4536 233° Southwest 406 467 40,000  Level Memphis Center
Sun 03:54:58 PM 35.3636 -88.5722 234° Southwest 406 467 40,000  Level Memphis Center
Sun 03:55:58 PM 35.3006 -88.6728 232° Southwest 411 473 40,000  Level Memphis Center
Sun 03:56:58 PM 35.2331 -88.7758 231° Southwest 411 473 40,000  Level Memphis Center
Sun 03:57:58 PM 35.1633 -88.8864 232° Southwest 411 473 40,000  Level Memphis Center
Sun 03:58:58 PM 35.0936 -88.9942 232° Southwest 411 473 40,000  Level Memphis Center
Sun 03:59:58 PM 35.0258 -89.0994 232° Southwest 411 473 40,000  Level Memphis Center
Sun 04:00:58 PM 34.9583 -89.2119 234° Southwest 411 473 40,000  Level Memphis Center
Sun 04:01:58 PM 34.8800 -89.3267 230° Southwest 416 479 40,000  Level Memphis Center
Sun 04:02:58 PM 34.8097 -89.4364 232° Southwest 416 479 40,000  Level Memphis Center
Sun 04:03:58 PM 34.7375 -89.5458 231° Southwest 416 479 40,000  Level Memphis Center
Sun 04:04:58 PM 34.6653 -89.6578 232° Southwest 422 486 40,000  Level Memphis Center
Sun 04:05:58 PM 34.5969 -89.7692 233° Southwest 422 486 40,000  Level Memphis Center
Sun 04:06:58 PM 34.5347 -89.8656 232° Southwest 416 479 40,000  Level Memphis Center
Sun 04:07:58 PM 34.4642 -89.9742 232° Southwest 416 479 40,000  Level Memphis Center
Sun 04:08:58 PM 34.3936 -90.0828 232° Southwest 416 479 40,000  Level Memphis Center
Sun 04:09:58 PM 34.3250 -90.1911 233° Southwest 416 479 40,000  Level Memphis Center
Sun 04:10:58 PM 34.2542 -90.2969 231° Southwest 416 479 40,000  Level Memphis Center
Sun 04:11:58 PM 34.1789 -90.4125 232° Southwest 416 479 40,000  Level Memphis Center
Sun 04:12:58 PM 34.1100 -90.5178 232° Southwest 416 479 40,000  Level Memphis Center
Sun 04:13:58 PM 34.0389 -90.6253 233° Southwest 414 476 40,000  Level Memphis Center
Sun 04:14:00 PM 34.0167 -90.6000 233° Southwest  Level FlightAware Approximate
Sun 04:14:58 PM 33.9697 -90.7278 231° Southwest 414 476 40,000  Level Memphis Center
Sun 04:15:58 PM 33.8983 -90.8328 231° Southwest 414 476 40,000  Level Memphis Center
Sun 04:16:58 PM 33.8269 -90.9397 231° Southwest 414 476 40,000  Level Memphis Center
Sun 04:17:58 PM 33.7575 -91.0442 231° Southwest 413 475 40,000  Level Memphis Center
Sun 04:18:58 PM 33.6861 -91.1511 231° Southwest 413 475 40,000  Level Memphis Center
Sun 04:19:58 PM 33.6186 -91.2503 231° Southwest 407 468 40,000  Level Memphis Center
Sun 04:20:58 PM 33.5489 -91.3542 231° Southwest 407 468 40,000  Level Memphis Center
Sun 04:22:54 PM 33.4247 -91.5478 232° Southwest 385 443 40,000  Level Fort Worth Center
Sun 04:23:54 PM 33.3525 -91.6494 230° Southwest 392 451 40,000  Level Fort Worth Center
Sun 04:24:54 PM 33.2819 -91.7508 230° Southwest 397 457 40,000  Level Fort Worth Center
Sun 04:25:54 PM 33.2114 -91.8522 230° Southwest 397 457 40,000  Level Fort Worth Center
Sun 04:26:54 PM 33.1386 -91.9558 230° Southwest 397 457 40,000  Level Fort Worth Center
Sun 04:27:54 PM 33.0719 -92.0567 232° Southwest 397 457 40,000  Level Fort Worth Center
Sun 04:28:54 PM 33.0011 -92.1550 229° Southwest 397 457 40,000  Level Fort Worth Center
Sun 04:29:54 PM 32.9322 -92.2556 231° Southwest 397 457 40,000  Level Fort Worth Center
Sun 04:30:54 PM 32.8592 -92.3586 230° Southwest 397 457 40,000  Level Fort Worth Center
Sun 04:31:54 PM 32.7881 -92.4592 230° Southwest 397 457 40,000  Level Fort Worth Center
Sun 04:32:54 PM 32.7169 -92.5617 231° Southwest 397 457 40,000  Level Fort Worth Center
Sun 04:33:54 PM 32.6417 -92.6669 230° Southwest 404 465 40,000  Level Fort Worth Center
Sun 04:34:54 PM 32.5722 -92.7667 230° Southwest 404 465 40,000  Level Fort Worth Center
Sun 04:35:54 PM 32.5008 -92.8689 230° Southwest 404 465 40,000  Level Fort Worth Center
Sun 04:36:54 PM 32.4272 -92.9736 230° Southwest 409 471 40,000  Level Fort Worth Center
Sun 04:37:54 PM 32.3558 -93.0803 232° Southwest 416 479 40,000  Level Fort Worth Center
Sun 04:38:54 PM 32.2800 -93.1772 227° Southwest 404 465 40,000  Level Fort Worth Center
Sun 04:39:54 PM 32.2061 -93.2814 230° Southwest 404 465 40,000  Level Fort Worth Center
Sun 04:40:54 PM 32.1344 -93.3878 232° Southwest 409 471 40,000  Level Fort Worth Center
Sun 04:41:54 PM 32.0586 -93.4939 230° Southwest 414 476 40,000  Level Fort Worth Center
Sun 04:42:54 PM 31.9864 -93.5950 230° Southwest 414 476 40,000  Level Fort Worth Center
Sun 04:43:54 PM 31.9142 -93.6933 229° Southwest 408 470 40,000  Level Fort Worth Center
Sun 04:44:54 PM 31.8461 -93.7917 231° Southwest 408 470 40,000  Level Fort Worth Center
Sun 04:45:54 PM 31.7694 -93.8897 227° Southwest 408 470 40,000  Level Fort Worth Center
Sun 04:47:48 PM 31.6481 -94.0575 230° Southwest 394 453 40,000  Level Houston Center
Sun 04:48:50 PM 31.5625 -94.1750 230° Southwest 394 453 40,000  Level Houston Center
Sun 04:49:53 PM 31.4894 -94.2733 229° Southwest 398 458 40,000  Level Houston Center
Sun 04:50:55 PM 31.4169 -94.3728 230° Southwest 401 461 40,000  Level Houston Center
Sun 04:51:57 PM 31.3436 -94.4725 229° Southwest 402 463 40,000  Level Houston Center
Sun 04:52:59 PM 31.2697 -94.5714 229° Southwest 401 461 40,000  Level Houston Center
Sun 04:54:01 PM 31.1897 -94.6819 230° Southwest 407 468 40,000  Level Houston Center
Sun 04:55:03 PM 31.1078 -94.7731 224° Southwest 425 489 40,000  Level Houston Center
Sun 04:56:05 PM 31.0253 -94.8642 223° Southwest 413 475 40,000  Level Houston Center
Sun 04:57:07 PM 30.9419 -94.9539 223° Southwest 408 470 40,000  Level Houston Center
Sun 04:58:09 PM 30.8425 -95.0614 223° Southwest 406 467 40,000  Level Houston Center
Sun 04:59:11 PM 30.7597 -95.1500 223° Southwest 404 465 40,000  Level Houston Center
Sun 05:00:13 PM 30.6775 -95.2372 222° Southwest 402 463 40,000  Level Houston Center
Sun 05:01:16 PM 30.5956 -95.3256 223° Southwest 400 460 40,000  Level Houston Center
Sun 05:02:18 PM 30.5136 -95.4125 222° Southwest 399 459 40,000  Level Houston Center
Sun 05:03:20 PM 30.4208 -95.5097 222° Southwest 398 458 40,000  Level Houston Center
Sun 05:04:22 PM 30.3400 -95.5969 223° Southwest 399 459 40,000  Level Houston Center
Sun 05:05:24 PM 30.2586 -95.6817 222° Southwest 396 456 40,000  Level Houston Center
Sun 05:06:26 PM 30.1786 -95.7661 222° Southwest 392 451 40,000  Level Houston Center
Sun 05:07:28 PM 30.0978 -95.8500 222° Southwest 394 453 40,000  Level Houston Center
Sun 05:08:30 PM 30.0000 -95.9519 222° Southwest 396 456 40,000  Level Houston Center
Sun 05:09:32 PM 29.9231 -96.0325 222° Southwest 394 453 40,000  Level Houston Center
Sun 05:10:36 PM 29.8414 -96.1178 222° Southwest 395 455 40,000  Level Houston Center
Sun 05:11:36 PM 29.8067 -96.2219 249° West 361 415 40,000  Level Houston Center
Sun 05:12:39 PM 29.8156 -96.3592 274° West 359 413 40,000 -144 Level Houston Center
Sun 05:13:41 PM 29.8233 -96.4747 274° West 362 417 39,700 -1,258 Descending Houston Center
Sun 05:14:43 PM 29.8303 -96.5869 274° West 356 410 37,400 -2,226 Descending Houston Center
Sun 05:15:45 PM 29.8358 -96.6983 273° West 352 405 35,100 -2,177 Descending Houston Center
Sun 05:16:47 PM 29.8419 -96.8067 274° West 345 397 32,900 -2,226 Descending Houston Center
Sun 05:17:49 PM 29.8494 -96.9344 274° West 336 387 30,500 -2,129 Descending Houston Center
Sun 05:18:51 PM 29.8556 -97.0403 274° West 335 386 28,500 -1,935 Descending Houston Center
Sun 05:19:53 PM 29.8606 -97.1439 273° West 328 377 26,500 -1,871 Descending Houston Center
Sun 05:21:00 PM 29.8635 -97.2815 271° West  Level FlightAware Approximate
Sun 05:21:57 PM 29.8711 -97.3428 271° West 311 358 22,700  Level Houston Center
Sun 05:22:59 PM 29.8781 -97.4569 274° West 300 345 20,500 -1,872 Descending Houston Center
Sun 05:24:02 PM 29.8825 -97.5525 273° West 294 338 18,800 -1,630 Descending Houston Center
Sun 05:24:20 PM 29.8839 -97.5789 273° West 291 335 18,300 -1,742 Descending Houston Center
Sun 05:25:04 PM 29.8875 -97.6492 273° West 284 327 17,000 -1,727 Descending Houston Center
Sun 05:25:26 PM 29.8878 -97.6822 271° West 279 321 16,400 -1,645 Descending Houston Center
Sun 05:26:06 PM 29.8914 -97.7364 274° West 275 316 15,300 -1,770 Descending Houston Center
Sun 05:26:27 PM 29.8922 -97.7708 272° West 273 314 14,600 -1,839 Descending Houston Center
Sun 05:27:08 PM 29.8953 -97.8303 273° West 273 314 13,400 -1,223 Descending Houston Center
Sun 05:28:10 PM 29.8728 -97.9197 254° West 298 343 12,500 -968 Descending Houston Center
Sun 05:29:12 PM 29.8347 -98.0114 244° Southwest 295 339 11,400 -1,016 Descending Houston Center
Sun 05:30:14 PM 29.7997 -98.0931 244° Southwest 288 331 10,400 -1,000 Descending Houston Center
Sun 05:30:30 PM 29.7906 -98.1161 245° Southwest 284 327 10,100 -1,065 Descending Houston Center
Sun 05:31:16 PM 29.7650 -98.1753 244° Southwest 267 307 9,300 -1,082 Descending Houston Center
Sun 05:31:31 PM 29.7581 -98.1925 245° Southwest 263 303 9,000 -968 Descending Houston Center
Sun 05:32:18 PM 29.7331 -98.2508 244° Southwest 262 302 8,300 -982 Descending Houston Center
Sun 05:33:21 PM 29.7000 -98.3294 244° Southwest 256 295 7,200 -1,008 Descending Houston Center
Sun 05:34:23 PM 29.6683 -98.4019 243° Southwest 255 293 6,200 -992 Descending Houston Center
Sun 05:35:28 PM 29.6547 -98.4842 259° West 261 300 5,100 -823 Descending Houston Center
Sun 05:36:27 PM 29.6853 -98.5444 300° West 240 276 4,500 -942 Descending Houston Center
Sun 05:37:29 PM 29.6342 -98.5833 213° Southwest 211 243 3,200 -976 Descending Houston Center
Sun 05:38:30 PM 29.5992 -98.5583 148° Southeast 203 234 2,500 -878 Descending Houston Center
Sun 05:39:32 PM 29.5631 -98.5144 133° Southeast 145 167 1,400 -816 Descending Houston Center
Sun 05:40:35 PM 29.5419 -98.4825 127° Southeast 133 153 800 -571 Descending Houston Center
Sun 05:42:00 PM 29.5340 -98.4691 205° Southwest  Level Estimated
Sun 05:49:00 PM 29.5333 -98.4667 16° North  Level FlightAware Approximate

Login

Don't have an account? Register now (free) for customized features, flight alerts, and more!